Time;durP1;ratioP1;P1;durP2;ratioP2;P2;SDS_P1;SDS_P2;PMS_P1;PMS_P2;Temp;Humidity;BMP_temperature;BMP_pressure;BME280_temperature;BME280_humidity;BME280_pressure;Samples;Min_cycle;Max_cycle;Signal;HPM_P1;HPM_P2
2021/12/02 00:01:06;;;;;;;8.00;5.55;;;10.60;99.90;;;;;;5106908;28;20031;-59
2021/12/02 00:03:37;;;;;;;11.95;5.40;;;10.60;99.90;;;;;;5101031;28;20058;-59
2021/12/02 00:06:09;;;;;;;8.88;5.28;;;10.60;99.90;;;;;;5093148;28;20419;-59
2021/12/02 00:08:37;;;;;;;12.10;5.47;;;10.50;99.90;;;;;;5106447;28;20035;-59
2021/12/02 00:11:05;;;;;;;10.25;6.07;;;10.50;99.90;;;;;;5094961;28;20043;-59
2021/12/02 00:16:40;;;;;;;11.35;6.32;;;10.50;99.90;;;;;;5036704;28;20648;-59
2021/12/02 00:22:01;;;;;;;10.07;6.05;;;10.30;99.90;;;;;;5094022;28;20031;-59
2021/12/02 00:24:34;;;;;;;14.70;6.68;;;10.30;99.90;;;;;;5093750;28;20476;-59
2021/12/02 00:27:06;;;;;;;11.52;7.15;;;10.20;99.90;;;;;;5120555;28;20035;-59
2021/12/02 00:29:35;;;;;;;15.52;7.07;;;10.10;99.90;;;;;;5080881;28;20031;-59
2021/12/02 00:32:05;;;;;;;8.82;6.75;;;10.00;99.90;;;;;;5092964;28;20036;-59
2021/12/02 00:34:36;;;;;;;10.10;6.22;;;10.00;99.90;;;;;;5109815;28;20067;-59
2021/12/02 00:37:04;;;;;;;11.65;5.78;;;10.00;99.90;;;;;;5094023;28;20046;-60
2021/12/02 00:39:31;;;;;;;9.13;5.57;;;10.00;99.90;;;;;;5092908;28;20032;-59
2021/12/02 00:42:00;;;;;;;9.95;5.05;;;10.00;99.90;;;;;;5111807;28;20089;-59
2021/12/02 00:44:31;;;;;;;10.88;5.55;;;10.00;99.90;;;;;;5112436;28;20071;-59
2021/12/02 00:47:03;;;;;;;13.02;5.97;;;10.00;99.90;;;;;;5105738;28;20085;-58
2021/12/02 00:49:31;;;;;;;11.95;6.60;;;10.00;99.90;;;;;;5094472;28;20059;-59
2021/12/02 00:52:00;;;;;;;7.40;5.28;;;10.00;99.90;;;;;;5100774;28;20035;-58
2021/12/02 00:54:29;;;;;;;10.23;5.60;;;10.00;99.90;;;;;;5097208;28;20055;-58
2021/12/02 00:56:57;;;;;;;11.32;5.78;;;10.00;99.90;;;;;;5111771;28;20067;-59
2021/12/02 00:59:28;;;;;;;11.02;6.68;;;9.90;99.90;;;;;;5113048;28;20046;-60
2021/12/02 01:01:57;;;;;;;10.85;6.88;;;9.90;99.90;;;;;;5109949;28;20028;-59
2021/12/02 01:04:25;;;;;;;9.90;6.22;;;9.90;99.90;;;;;;5098227;28;20035;-59
2021/12/02 01:06:53;;;;;;;10.93;5.43;;;9.90;99.90;;;;;;5108301;28;20067;-59
2021/12/02 01:09:21;;;;;;;9.85;4.97;;;9.90;99.90;;;;;;5099908;28;20446;-59
2021/12/02 01:11:49;;;;;;;5.57;3.95;;;9.90;99.90;;;;;;5094761;28;20478;-59
2021/12/02 01:14:17;;;;;;;9.55;4.03;;;9.90;99.90;;;;;;5113719;28;20039;-59
2021/12/02 01:16:44;;;;;;;7.75;3.72;;;9.90;99.90;;;;;;5109406;28;20042;-60
2021/12/02 01:19:12;;;;;;;8.20;3.97;;;10.00;99.90;;;;;;5115536;28;20474;-59
2021/12/02 01:21:42;;;;;;;4.53;3.10;;;10.00;99.90;;;;;;5107360;28;20067;-59
2021/12/02 01:24:13;;;;;;;5.25;3.17;;;10.00;99.90;;;;;;5109305;28;20524;-59
2021/12/02 01:26:48;;;;;;;4.82;3.38;;;10.10;99.90;;;;;;5094698;28;20032;-59
2021/12/02 01:29:19;;;;;;;7.90;3.63;;;10.10;99.90;;;;;;5081627;28;20039;-59
2021/12/02 01:31:51;;;;;;;7.10;3.80;;;10.10;99.90;;;;;;5088635;27;20042;-59
2021/12/02 01:34:25;;;;;;;7.57;3.65;;;10.10;99.90;;;;;;5107673;27;20047;-59
2021/12/02 01:36:54;;;;;;;6.97;4.07;;;10.10;99.90;;;;;;5104928;28;20040;-59
2021/12/02 01:39:22;;;;;;;7.25;3.63;;;10.20;99.90;;;;;;5107240;28;20118;-59
2021/12/02 01:41:53;;;;;;;6.47;3.10;;;10.20;99.90;;;;;;5079823;28;20052;-59
2021/12/02 01:44:22;;;;;;;5.53;2.75;;;10.20;99.90;;;;;;5082794;28;20051;-59
2021/12/02 01:46:53;;;;;;;6.57;2.92;;;10.20;99.90;;;;;;5107130;28;20040;-59
2021/12/02 01:49:25;;;;;;;5.95;2.78;;;10.10;99.90;;;;;;5107045;28;20126;-58
2021/12/02 01:51:55;;;;;;;5.40;3.20;;;10.00;99.90;;;;;;5105650;28;20059;-59
2021/12/02 01:54:27;;;;;;;11.93;3.15;;;10.00;99.90;;;;;;5095866;28;20055;-59
2021/12/02 01:57:05;;;;;;;5.97;3.42;;;10.00;99.90;;;;;;5102046;28;20062;-59
2021/12/02 01:59:36;;;;;;;6.05;3.15;;;10.00;99.90;;;;;;5086230;28;20075;-59
2021/12/02 02:02:07;;;;;;;10.07;2.38;;;9.90;99.90;;;;;;5088201;28;20036;-58
2021/12/02 02:04:35;;;;;;;4.60;3.33;;;9.90;99.90;;;;;;5078623;28;20059;-58
2021/12/02 02:07:23;;;;;;;5.00;3.03;;;10.00;99.90;;;;;;5083941;28;20052;-58
2021/12/02 02:09:51;;;;;;;2.70;2.10;;;9.90;99.90;;;;;;5077993;28;20027;-58
2021/12/02 02:12:21;;;;;;;4.78;2.42;;;9.80;99.90;;;;;;5096385;28;20036;-59
2021/12/02 02:14:50;;;;;;;2.92;2.13;;;9.80;99.90;;;;;;5102704;28;20082;-59
2021/12/02 02:17:24;;;;;;;5.55;2.13;;;9.80;99.90;;;;;;5089509;28;20495;-60
2021/12/02 02:19:53;;;;;;;4.38;2.80;;;9.80;99.90;;;;;;5071671;28;20040;-58
2021/12/02 02:22:24;;;;;;;5.10;2.42;;;9.70;99.90;;;;;;5083687;28;20059;-59
2021/12/02 02:24:53;;;;;;;4.07;2.72;;;9.80;99.90;;;;;;5084221;28;20028;-58
2021/12/02 02:27:21;;;;;;;5.25;2.60;;;9.70;99.90;;;;;;5074403;28;20037;-59
2021/12/02 02:29:49;;;;;;;3.95;2.63;;;9.70;99.90;;;;;;5099865;28;20037;-58
2021/12/02 02:32:18;;;;;;;4.53;2.45;;;9.70;99.90;;;;;;5098217;28;20074;-58
2021/12/02 02:34:46;;;;;;;6.97;2.53;;;9.70;99.90;;;;;;5056302;28;20126;-60
2021/12/02 02:37:14;;;;;;;4.90;2.38;;;9.70;99.90;;;;;;5098501;28;20046;-60
2021/12/02 02:39:41;;;;;;;4.00;2.35;;;9.70;99.90;;;;;;5092810;28;20507;-59
2021/12/02 02:42:09;;;;;;;4.53;2.30;;;9.70;99.90;;;;;;5099322;28;20039;-59
2021/12/02 02:44:37;;;;;;;4.00;2.35;;;9.70;99.90;;;;;;5066528;28;20398;-58
2021/12/02 02:47:05;;;;;;;3.88;1.90;;;9.70;99.90;;;;;;5072512;28;20032;-59
2021/12/02 02:49:33;;;;;;;4.60;2.35;;;9.70;99.90;;;;;;5087989;28;20039;-60
2021/12/02 02:52:00;;;;;;;4.07;1.92;;;9.80;99.90;;;;;;5083564;28;20065;-59
2021/12/02 02:54:28;;;;;;;3.00;1.77;;;9.80;99.90;;;;;;5095940;28;20066;-59
2021/12/02 02:57:06;;;;;;;3.47;1.67;;;9.80;99.90;;;;;;5101991;28;20040;-59
2021/12/02 03:12:38;;;;;;;4.63;2.05;;;9.80;99.90;;;;;;5098726;28;20086;-58
2021/12/02 03:17:33;;;;;;;5.80;2.20;;;9.70;99.90;;;;;;5065300;28;20052;-58
2021/12/02 03:20:02;;;;;;;4.03;2.30;;;9.60;99.90;;;;;;5087172;28;20086;-59
2021/12/02 03:22:32;;;;;;;4.38;1.90;;;9.60;99.90;;;;;;5087633;28;20541;-59
2021/12/02 03:24:59;;;;;;;3.47;2.28;;;9.60;99.90;;;;;;5087279;28;20056;-59
2021/12/02 03:27:27;;;;;;;12.55;2.85;;;9.50;99.90;;;;;;5082326;28;20051;-60
2021/12/02 03:29:55;;;;;;;5.32;2.58;;;9.60;99.90;;;;;;5083459;28;20031;-59
2021/12/02 03:32:22;;;;;;;6.05;3.58;;;9.50;99.90;;;;;;5085175;28;20154;-59
2021/12/02 03:34:50;;;;;;;6.63;2.40;;;9.50;99.90;;;;;;5076029;28;20036;-59
2021/12/02 03:37:19;;;;;;;6.43;3.38;;;9.50;99.90;;;;;;5076202;28;20028;-59
2021/12/02 03:39:46;;;;;;;3.80;2.38;;;9.50;99.90;;;;;;5059008;28;20124;-59
2021/12/02 03:42:14;;;;;;;5.47;2.70;;;9.40;99.90;;;;;;5094438;28;20135;-59
2021/12/02 03:44:42;;;;;;;4.38;2.70;;;9.30;99.90;;;;;;5106625;28;20039;-60
2021/12/02 03:47:09;;;;;;;5.90;2.67;;;9.40;99.90;;;;;;5096344;28;20031;-60
2021/12/02 03:49:37;;;;;;;4.10;2.90;;;9.40;99.90;;;;;;5114492;28;20035;-59
2021/12/02 03:52:05;;;;;;;6.35;3.17;;;9.50;99.90;;;;;;5096810;28;20441;-59
2021/12/02 03:54:32;;;;;;;4.28;2.50;;;9.50;99.90;;;;;;5114565;28;20366;-59
2021/12/02 03:57:00;;;;;;;5.55;2.47;;;9.60;99.90;;;;;;5114333;28;20108;-59
2021/12/02 03:59:28;;;;;;;4.03;2.45;;;9.60;99.90;;;;;;5096201;28;20032;-60
2021/12/02 04:01:55;;;;;;;6.90;3.45;;;9.70;99.90;;;;;;5096234;28;20040;-60
2021/12/02 04:04:23;;;;;;;4.85;2.10;;;9.70;99.90;;;;;;5114224;28;20481;-59
2021/12/02 04:06:50;;;;;;;6.93;2.90;;;9.80;99.90;;;;;;5096301;28;20028;-59
2021/12/02 04:09:22;;;;;;;4.53;2.22;;;9.80;99.90;;;;;;5114018;28;20036;-59
2021/12/02 04:14:29;;;;;;;8.15;3.03;;;9.90;99.90;;;;;;5095643;28;20134;-59
2021/12/02 04:17:05;;;;;;;4.55;2.53;;;9.90;99.90;;;;;;5114215;28;20032;-59
2021/12/02 04:19:34;;;;;;;6.75;4.13;;;10.00;99.90;;;;;;5095830;28;20074;-59
2021/12/02 04:22:02;;;;;;;6.68;3.67;;;9.90;99.90;;;;;;5078696;28;20039;-59
2021/12/02 04:24:29;;;;;;;6.68;3.42;;;9.90;99.90;;;;;;5096228;28;20122;-59
2021/12/02 04:26:57;;;;;;;5.30;3.05;;;9.90;99.90;;;;;;5115147;28;20042;-59
2021/12/02 04:29:25;;;;;;;5.05;2.80;;;9.80;99.90;;;;;;5100533;28;20066;-59
2021/12/02 04:31:53;;;;;;;8.82;3.00;;;9.80;99.90;;;;;;5083452;28;20130;-59
2021/12/02 04:34:21;;;;;;;6.82;2.97;;;9.80;99.90;;;;;;5118192;28;20122;-59
2021/12/02 04:36:49;;;;;;;6.05;3.13;;;9.80;99.90;;;;;;5118208;28;20120;-59
2021/12/02 04:39:19;;;;;;;6.90;2.75;;;9.80;99.90;;;;;;5118145;28;20039;-59
2021/12/02 04:41:46;;;;;;;7.53;3.53;;;9.80;99.90;;;;;;5117899;28;20130;-59
2021/12/02 04:44:18;;;;;;;5.70;2.63;;;9.80;99.90;;;;;;5118137;28;20040;-59
2021/12/02 04:46:46;;;;;;;5.03;3.78;;;9.90;99.90;;;;;;5099833;28;20038;-59
2021/12/02 04:49:13;;;;;;;4.53;3.00;;;9.90;99.90;;;;;;5118048;28;20130;-59
2021/12/02 04:51:41;;;;;;;7.13;2.90;;;9.80;99.90;;;;;;5099903;28;20044;-59
2021/12/02 04:54:09;;;;;;;4.55;2.72;;;9.90;99.90;;;;;;5117775;28;20124;-59
2021/12/02 04:56:37;;;;;;;5.32;2.80;;;9.90;99.90;;;;;;5099747;28;20354;-59
2021/12/02 04:59:05;;;;;;;7.15;3.33;;;9.90;99.90;;;;;;5099552;28;20047;-59
2021/12/02 05:01:32;;;;;;;6.70;2.83;;;9.90;99.90;;;;;;5117714;28;20051;-59
2021/12/02 05:04:00;;;;;;;6.10;2.95;;;9.90;99.90;;;;;;5099333;28;20044;-59
2021/12/02 05:06:27;;;;;;;9.35;3.40;;;9.90;99.90;;;;;;5099635;28;20039;-59
2021/12/02 05:08:57;;;;;;;7.15;3.13;;;10.00;99.90;;;;;;5117731;28;20123;-59
2021/12/02 05:11:25;;;;;;;6.57;2.88;;;10.10;99.90;;;;;;5117688;28;20051;-59
2021/12/02 05:13:52;;;;;;;4.53;2.88;;;10.10;99.90;;;;;;5082669;28;20047;-60
2021/12/02 05:16:20;;;;;;;6.97;2.78;;;10.10;99.90;;;;;;5099307;28;20033;-59
2021/12/02 05:18:48;;;;;;;6.57;2.92;;;10.20;99.90;;;;;;5117633;28;20131;-59
2021/12/02 05:21:15;;;;;;;6.43;3.50;;;10.20;99.90;;;;;;5082267;28;20461;-59
2021/12/02 05:23:44;;;;;;;4.28;2.90;;;10.20;99.90;;;;;;5117212;28;20071;-59
2021/12/02 05:26:11;;;;;;;6.15;3.30;;;10.20;99.90;;;;;;5099088;28;20046;-59
2021/12/02 05:28:39;;;;;;;7.20;3.33;;;10.20;99.90;;;;;;5117141;28;20069;-59
2021/12/02 05:31:06;;;;;;;4.90;2.78;;;10.20;99.90;;;;;;5117052;28;20038;-58
2021/12/02 05:33:34;;;;;;;14.00;3.65;;;10.20;99.90;;;;;;5099073;28;20442;-58
2021/12/02 05:36:02;;;;;;;5.07;2.95;;;10.20;99.90;;;;;;5117034;28;20046;-59
2021/12/02 05:38:29;;;;;;;4.20;2.65;;;10.20;99.90;;;;;;5116665;28;20046;-59
2021/12/02 05:40:57;;;;;;;8.10;2.88;;;10.20;99.90;;;;;;5116916;28;20126;-59
2021/12/02 05:43:24;;;;;;;4.63;2.92;;;10.20;99.90;;;;;;5116693;28;20070;-59
2021/12/02 05:45:52;;;;;;;4.95;2.80;;;10.20;99.90;;;;;;5090371;28;20104;-59
2021/12/02 05:48:19;;;;;;;8.05;3.67;;;10.20;99.90;;;;;;5116908;28;20469;-59
2021/12/02 05:50:47;;;;;;;5.57;2.60;;;10.10;99.90;;;;;;5116838;28;20036;-59
2021/12/02 05:53:15;;;;;;;8.15;3.10;;;10.10;99.90;;;;;;5116499;28;20066;-59
2021/12/02 05:55:43;;;;;;;6.53;3.28;;;10.10;99.90;;;;;;5116605;28;20126;-59
2021/12/02 05:58:13;;;;;;;7.40;4.22;;;10.00;99.90;;;;;;5098479;28;20035;-59
2021/12/02 06:00:41;;;;;;;8.27;3.40;;;10.00;99.90;;;;;;5117026;28;20067;-59
2021/12/02 06:03:09;;;;;;;5.75;2.92;;;10.00;99.90;;;;;;5097993;28;20040;-59
2021/12/02 06:05:37;;;;;;;6.30;3.15;;;10.10;99.90;;;;;;5081340;28;20036;-59
2021/12/02 06:08:05;;;;;;;9.65;3.55;;;10.10;99.90;;;;;;5098329;28;20067;-59
2021/12/02 06:10:33;;;;;;;12.45;3.60;;;10.30;99.90;;;;;;5081431;28;20057;-59
2021/12/02 06:13:00;;;;;;;5.50;3.08;;;10.50;99.90;;;;;;5098267;28;20088;-59
2021/12/02 06:15:28;;;;;;;6.78;3.63;;;11.00;99.90;;;;;;5098507;28;20046;-59
2021/12/02 06:17:55;;;;;;;6.90;3.60;;;11.40;99.90;;;;;;5081270;28;20074;-59
2021/12/02 06:20:23;;;;;;;6.35;2.40;;;11.90;99.90;;;;;;5098228;28;20560;-59
2021/12/02 06:22:51;;;;;;;5.10;3.05;;;12.20;99.90;;;;;;5098096;28;20070;-59
2021/12/02 06:27:52;;;;;;;7.35;3.75;;;13.20;99.90;;;;;;5115901;28;20039;-59
2021/12/02 06:30:23;;;;;;;8.45;2.60;;;14.00;99.90;;;;;;5097857;28;20481;-59
2021/12/02 06:32:51;;;;;;;7.55;2.95;;;14.80;99.90;;;;;;5115987;28;20036;-60
2021/12/02 06:35:19;;;;;;;7.10;2.85;;;15.50;99.90;;;;;;5097561;28;20453;-59
2021/12/02 06:37:46;;;;;;;6.30;3.25;;;15.90;99.90;;;;;;5097731;28;20445;-59
2021/12/02 06:40:14;;;;;;;6.32;2.67;;;16.30;99.90;;;;;;5115705;28;20035;-59
2021/12/02 06:42:42;;;;;;;5.35;3.33;;;16.50;99.90;;;;;;5116008;28;20074;-59
2021/12/02 06:45:10;;;;;;;7.55;2.60;;;16.90;99.90;;;;;;5096005;28;20047;-60
2021/12/02 06:47:39;;;;;;;6.15;2.63;;;16.70;99.90;;;;;;5115460;28;20046;-60
2021/12/02 06:50:12;;;;;;;13.23;3.25;;;16.70;99.90;;;;;;5114438;28;20557;-60
2021/12/02 06:52:41;;;;;;;5.93;2.67;;;16.90;99.90;;;;;;5107443;28;20545;-60
2021/12/02 06:55:10;;;;;;;7.60;2.53;;;17.00;99.90;;;;;;5085269;28;20036;-60
2021/12/02 06:57:38;;;;;;;10.23;4.32;;;16.20;99.90;;;;;;5092893;28;20140;-60
2021/12/02 07:00:09;;;;;;;10.68;4.13;;;15.10;99.90;;;;;;5068775;28;20036;-60
2021/12/02 07:02:37;;;;;;;7.28;3.15;;;14.00;99.90;;;;;;5096444;28;20047;-61
2021/12/02 07:05:08;;;;;;;11.15;3.80;;;13.30;99.90;;;;;;5084564;28;20040;-60
2021/12/02 07:07:38;;;;;;;8.23;3.35;;;12.80;99.90;;;;;;5098777;28;20556;-59
2021/12/02 07:10:12;;;;;;;8.88;3.45;;;12.50;99.90;;;;;;5098032;28;20035;-61
2021/12/02 07:12:42;;;;;;;5.75;2.83;;;12.30;99.90;;;;;;5098706;28;20069;-61
2021/12/02 07:15:16;;;;;;;5.85;2.55;;;12.20;99.90;;;;;;5105581;28;20042;-61
2021/12/02 07:17:45;;;;;;;6.93;2.60;;;12.30;99.90;;;;;;5109081;28;20039;-60
2021/12/02 07:20:14;;;;;;;10.20;3.58;;;12.50;99.90;;;;;;5073859;28;20037;-60
2021/12/02 07:22:42;;;;;;;4.55;2.53;;;13.20;99.90;;;;;;5071678;28;20097;-60
2021/12/02 07:25:10;;;;;;;5.45;3.05;;;14.60;99.90;;;;;;5073705;28;20449;-61
2021/12/02 07:27:38;;;;;;;8.95;4.63;;;16.00;99.90;;;;;;5073299;28;20429;-61
2021/12/02 07:30:07;;;;;;;7.32;4.18;;;16.50;99.90;;;;;;5073305;28;20086;-60
2021/12/02 07:32:39;;;;;;;8.13;3.42;;;17.10;99.90;;;;;;5055789;28;20033;-61
2021/12/02 07:35:15;;;;;;;7.97;2.42;;;17.00;99.90;;;;;;5073689;28;20045;-61
2021/12/02 07:37:46;;;;;;;5.15;2.20;;;17.30;99.90;;;;;;5073584;28;20116;-60
2021/12/02 07:40:16;;;;;;;6.18;2.38;;;17.10;99.90;;;;;;5065904;28;20040;-60
2021/12/02 07:42:45;;;;;;;4.90;2.20;;;16.40;99.90;;;;;;5073047;28;20123;-61
2021/12/02 07:45:13;;;;;;;4.53;2.63;;;16.50;99.90;;;;;;5069736;28;20044;-60
2021/12/02 07:47:42;;;;;;;4.88;1.85;;;16.40;99.90;;;;;;5093342;28;20057;-60
2021/12/02 07:50:12;;;;;;;5.53;1.90;;;16.10;99.90;;;;;;5114375;28;20065;-60
2021/12/02 07:52:45;;;;;;;8.77;2.20;;;15.80;99.90;;;;;;5091366;28;20060;-60
2021/12/02 07:55:16;;;;;;;4.20;2.22;;;16.00;99.90;;;;;;5076561;28;20036;-60
2021/12/02 07:57:45;;;;;;;11.68;3.45;;;15.80;99.90;;;;;;5093148;28;20489;-60
2021/12/02 08:00:19;;;;;;;6.63;2.35;;;15.90;99.90;;;;;;5093340;28;20541;-60
2021/12/02 08:02:49;;;;;;;6.15;2.70;;;16.00;99.90;;;;;;5075237;28;20044;-60
2021/12/02 08:05:18;;;;;;;5.88;2.78;;;16.00;99.90;;;;;;5075702;28;20071;-60
2021/12/02 08:07:45;;;;;;;6.72;3.42;;;16.20;99.90;;;;;;5093295;28;20469;-60
2021/12/02 08:10:15;;;;;;;11.23;3.05;;;16.10;99.90;;;;;;5093204;28;20089;-61
2021/12/02 08:12:48;;;;;;;5.57;2.30;;;16.20;99.90;;;;;;5074513;28;20032;-61
2021/12/02 08:15:22;;;;;;;6.07;3.20;;;16.30;99.90;;;;;;5077936;28;20476;-61
2021/12/02 08:17:50;;;;;;;9.55;2.58;;;16.30;99.90;;;;;;5093168;28;20048;-61
2021/12/02 08:20:20;;;;;;;8.27;2.20;;;16.20;99.90;;;;;;5093326;28;20071;-61
2021/12/02 08:22:48;;;;;;;7.88;2.20;;;16.00;99.90;;;;;;5093081;28;20035;-61
2021/12/02 08:25:17;;;;;;;4.35;2.55;;;15.80;99.90;;;;;;5075463;28;20040;-61
2021/12/02 08:27:45;;;;;;;5.68;2.35;;;15.70;99.90;;;;;;5108780;28;20043;-61
2021/12/02 08:30:15;;;;;;;12.95;3.05;;;15.80;99.90;;;;;;5095944;28;20477;-61
2021/12/02 08:32:45;;;;;;;24.10;12.50;;;15.90;99.90;;;;;;5095971;28;20043;-60
2021/12/02 08:35:13;;;;;;;16.55;7.30;;;15.90;99.90;;;;;;5113911;28;20042;-60
2021/12/02 08:37:46;;;;;;;12.18;6.78;;;15.90;99.90;;;;;;5114103;28;20040;-61
2021/12/02 08:40:17;;;;;;;26.95;13.10;;;16.00;99.90;;;;;;5114057;28;20118;-61
2021/12/02 08:42:46;;;;;;;22.75;13.98;;;16.10;99.90;;;;;;5096078;28;20036;-61
2021/12/02 08:45:15;;;;;;;14.18;9.40;;;16.20;99.90;;;;;;5113510;28;20051;-61
2021/12/02 08:47:44;;;;;;;14.02;9.45;;;16.20;99.90;;;;;;5113824;28;20031;-60
2021/12/02 08:50:19;;;;;;;13.77;7.68;;;16.20;99.90;;;;;;5095799;28;20039;-60
2021/12/02 08:52:49;;;;;;;13.20;8.25;;;16.20;99.90;;;;;;5114055;28;20126;-61
2021/12/02 08:55:18;;;;;;;11.40;7.25;;;16.20;99.90;;;;;;5113829;28;20035;-60
2021/12/02 08:57:47;;;;;;;8.95;3.97;;;16.20;99.90;;;;;;5079112;28;20084;-61
2021/12/02 09:00:18;;;;;;;10.18;4.60;;;16.20;99.90;;;;;;5113611;28;20074;-60
2021/12/02 09:02:46;;;;;;;5.75;2.88;;;16.20;99.90;;;;;;5113989;28;20040;-60
2021/12/02 09:05:15;;;;;;;9.07;4.30;;;16.30;99.90;;;;;;5078888;28;20044;-60
2021/12/02 09:07:43;;;;;;;16.60;7.20;;;16.30;99.90;;;;;;5113784;28;20359;-60
2021/12/02 09:10:12;;;;;;;6.47;3.90;;;16.40;99.90;;;;;;5095451;28;20039;-61
2021/12/02 09:12:42;;;;;;;8.93;5.15;;;16.40;99.90;;;;;;5114006;28;20093;-61
2021/12/02 09:15:10;;;;;;;6.32;3.53;;;16.40;99.90;;;;;;5099396;28;20039;-60
2021/12/02 09:17:38;;;;;;;7.53;3.50;;;16.60;99.90;;;;;;5117558;28;20062;-60
2021/12/02 09:20:09;;;;;;;14.85;6.18;;;16.50;99.90;;;;;;5117361;28;20373;-60
2021/12/02 09:22:37;;;;;;;11.35;7.22;;;16.50;99.90;;;;;;5099465;28;20036;-60
2021/12/02 09:25:06;;;;;;;12.98;6.15;;;16.50;99.90;;;;;;5099106;28;20050;-60
2021/12/02 09:27:34;;;;;;;7.78;4.28;;;16.50;99.90;;;;;;5099031;28;20043;-60
2021/12/02 09:30:04;;;;;;;7.80;3.90;;;16.60;99.90;;;;;;5117298;28;20035;-60
2021/12/02 09:32:33;;;;;;;13.90;6.35;;;16.70;99.90;;;;;;5117697;28;20146;-60
2021/12/02 09:35:01;;;;;;;11.70;4.40;;;16.80;99.90;;;;;;5117329;28;20091;-60
2021/12/02 09:37:28;;;;;;;5.45;3.25;;;17.00;99.90;;;;;;5116974;28;20035;-60
2021/12/02 09:39:57;;;;;;;5.60;2.65;;;16.90;99.90;;;;;;5098614;28;20039;-60
2021/12/02 09:42:25;;;;;;;5.07;2.88;;;16.90;99.90;;;;;;5098622;28;20469;-60
2021/12/02 09:45:00;;;;;;;10.68;5.60;;;16.90;99.90;;;;;;5116846;28;20043;-60
2021/12/02 09:47:33;;;;;;;7.15;3.50;;;16.90;99.90;;;;;;5098881;28;20028;-60
2021/12/02 09:50:06;;;;;;;13.50;5.28;;;16.90;99.90;;;;;;5098019;28;20510;-60
2021/12/02 09:52:40;;;;;;;8.18;5.13;;;17.00;99.90;;;;;;5116856;28;20142;-60
2021/12/02 09:55:18;;;;;;;8.65;3.53;;;17.00;99.90;;;;;;5116678;28;20036;-60
2021/12/02 09:57:53;;;;;;;5.45;2.30;;;16.90;99.90;;;;;;5116907;28;20043;-60
2021/12/02 10:00:28;;;;;;;9.07;3.78;;;16.90;99.90;;;;;;5098374;28;20430;-60
2021/12/02 10:03:02;;;;;;;6.07;2.92;;;17.00;99.90;;;;;;5116724;28;20039;-60
2021/12/02 10:05:40;;;;;;;5.00;3.22;;;17.00;99.90;;;;;;5116580;28;20065;-60
2021/12/02 10:08:09;;;;;;;5.85;2.85;;;17.10;99.90;;;;;;5098802;28;20135;-60
2021/12/02 10:10:52;;;;;;;4.65;1.90;;;17.10;99.90;;;;;;5081737;28;20075;-60
2021/12/02 10:13:28;;;;;;;5.43;2.17;;;17.10;99.90;;;;;;5098119;28;20089;-60
2021/12/02 10:21:31;;;;;;;4.50;1.95;;;17.20;99.80;;;;;;5116250;28;20042;-60
2021/12/02 10:24:05;;;;;;;5.10;2.63;;;17.20;99.40;;;;;;5115661;28;20062;-60
2021/12/02 10:26:44;;;;;;;8.57;2.25;;;17.20;98.40;;;;;;5115700;28;20032;-62
2021/12/02 10:29:26;;;;;;;3.72;1.55;;;17.20;98.00;;;;;;5116185;28;20027;-62
2021/12/02 10:32:25;;;;;;;4.10;1.73;;;17.20;97.50;;;;;;5080965;28;20035;-62
2021/12/02 10:34:58;;;;;;;4.90;1.60;;;17.00;97.30;;;;;;5096541;28;20047;-62
2021/12/02 10:37:29;;;;;;;3.00;1.52;;;17.10;97.30;;;;;;5116011;28;20035;-60
2021/12/02 10:40:00;;;;;;;2.97;1.50;;;17.20;97.20;;;;;;5116108;28;20119;-60
2021/12/02 10:42:29;;;;;;;4.55;2.25;;;17.30;96.50;;;;;;5097502;28;20385;-60
2021/12/02 10:45:01;;;;;;;7.25;4.63;;;17.20;96.60;;;;;;5080771;28;20055;-60
2021/12/02 10:47:30;;;;;;;6.07;3.38;;;17.20;97.60;;;;;;5115678;28;20135;-61
2021/12/02 10:50:08;;;;;;;4.05;2.33;;;17.20;97.20;;;;;;5115855;28;20122;-61
2021/12/02 10:52:36;;;;;;;3.65;1.92;;;17.10;97.60;;;;;;5115972;28;20089;-61
2021/12/02 10:55:07;;;;;;;4.32;2.42;;;17.10;98.20;;;;;;5097397;28;20550;-61
2021/12/02 10:57:51;;;;;;;3.67;2.22;;;17.20;98.50;;;;;;5097351;28;20470;-61
2021/12/02 11:00:28;;;;;;;8.27;2.30;;;17.30;98.70;;;;;;5097194;28;20044;-61
2021/12/02 11:02:59;;;;;;;4.82;2.03;;;17.30;99.10;;;;;;5115756;28;20035;-61
2021/12/02 11:05:33;;;;;;;7.32;3.78;;;17.30;98.40;;;;;;5115304;28;20071;-61
2021/12/02 11:08:15;;;;;;;7.68;2.53;;;17.30;98.70;;;;;;5115377;28;20040;-61
2021/12/02 11:10:48;;;;;;;7.20;2.25;;;17.20;98.90;;;;;;5115574;28;20089;-61
2021/12/02 11:13:24;;;;;;;7.30;2.95;;;17.10;99.30;;;;;;5115348;28;20092;-61
2021/12/02 11:15:53;;;;;;;6.80;2.55;;;17.00;99.90;;;;;;5097345;28;20036;-61
2021/12/02 11:18:22;;;;;;;4.85;2.35;;;17.10;99.90;;;;;;5097148;28;20065;-61
2021/12/02 11:20:57;;;;;;;8.13;2.75;;;17.10;99.90;;;;;;5114847;28;20444;-61
2021/12/02 11:23:31;;;;;;;5.97;2.50;;;17.00;99.90;;;;;;5096929;28;20382;-61
2021/12/02 11:26:02;;;;;;;5.65;2.70;;;17.00;99.90;;;;;;5115019;28;20039;-61
2021/12/02 11:28:35;;;;;;;6.00;2.95;;;16.90;99.90;;;;;;5114784;28;20039;-61
2021/12/02 11:31:14;;;;;;;5.75;2.65;;;16.90;99.90;;;;;;5114795;28;20081;-61
2021/12/02 11:33:42;;;;;;;6.82;3.05;;;17.00;99.90;;;;;;5096835;28;20043;-60
2021/12/02 11:36:19;;;;;;;6.45;3.20;;;16.90;99.90;;;;;;5114483;28;20142;-60
2021/12/02 11:38:49;;;;;;;8.73;4.43;;;16.80;99.90;;;;;;5114860;28;20036;-61
2021/12/02 11:41:19;;;;;;;13.85;8.20;;;16.80;99.90;;;;;;5096148;28;20035;-60
2021/12/02 11:43:46;;;;;;;14.85;8.75;;;16.90;99.90;;;;;;5114353;28;20043;-61
2021/12/02 11:46:14;;;;;;;12.45;6.65;;;16.90;99.90;;;;;;5114720;28;20074;-61
2021/12/02 11:48:43;;;;;;;5.85;3.05;;;17.00;99.90;;;;;;5114604;28;20031;-60
2021/12/02 11:51:22;;;;;;;5.32;2.38;;;16.90;99.90;;;;;;5096865;28;20047;-60
2021/12/02 11:53:49;;;;;;;6.47;2.97;;;17.00;99.90;;;;;;5114502;28;20122;-60
2021/12/02 11:56:19;;;;;;;10.48;3.33;;;17.00;99.90;;;;;;5114294;28;20089;-60
2021/12/02 11:58:48;;;;;;;6.53;2.13;;;17.00;99.90;;;;;;5114560;28;20055;-60
2021/12/02 12:01:21;;;;;;;5.47;2.85;;;16.90;99.90;;;;;;5114338;28;20036;-60
2021/12/02 12:03:53;;;;;;;5.15;2.28;;;17.00;99.90;;;;;;5096260;28;20046;-61
2021/12/02 12:06:28;;;;;;;5.43;2.00;;;16.90;99.90;;;;;;5114256;28;20466;-61
2021/12/02 12:08:57;;;;;;;4.90;2.55;;;17.00;99.90;;;;;;5114287;28;20114;-61
2021/12/02 12:11:26;;;;;;;4.57;2.33;;;17.00;99.90;;;;;;5096080;28;20048;-61
2021/12/02 12:13:56;;;;;;;6.47;3.70;;;16.90;99.90;;;;;;5114206;28;20131;-61
2021/12/02 12:16:24;;;;;;;7.25;3.13;;;16.80;99.90;;;;;;5114362;28;20078;-61
2021/12/02 12:18:56;;;;;;;3.97;2.05;;;16.90;99.90;;;;;;5096059;28;20063;-61
2021/12/02 12:21:37;;;;;;;4.38;3.20;;;16.90;99.90;;;;;;5113746;28;20040;-61
2021/12/02 12:24:06;;;;;;;4.95;2.03;;;16.90;99.50;;;;;;5114264;28;20036;-61
2021/12/02 12:26:36;;;;;;;4.65;2.42;;;16.90;99.90;;;;;;5079386;28;20465;-61
2021/12/02 12:29:04;;;;;;;7.43;1.88;;;16.90;99.50;;;;;;5114239;28;20040;-61
2021/12/02 12:31:47;;;;;;;5.28;2.25;;;16.90;99.10;;;;;;5095993;28;20083;-61
2021/12/02 12:37:20;;;;;;;3.83;2.05;;;16.90;98.30;;;;;;5094686;28;20479;-61
2021/12/02 12:40:21;;;;;;;4.97;3.05;;;16.90;99.10;;;;;;5095567;28;20044;-61
2021/12/02 12:42:49;;;;;;;4.72;2.35;;;16.80;98.80;;;;;;5113941;28;20044;-61
2021/12/02 12:45:28;;;;;;;5.43;2.42;;;16.80;99.70;;;;;;5113791;28;20470;-61
2021/12/02 12:48:01;;;;;;;8.52;3.08;;;16.80;99.60;;;;;;5096607;28;20067;-61
2021/12/02 12:50:35;;;;;;;10.45;3.05;;;16.70;99.90;;;;;;5099647;28;20041;-61
2021/12/02 12:53:03;;;;;;;7.80;4.28;;;16.70;99.90;;;;;;5117889;28;20059;-61
2021/12/02 12:55:33;;;;;;;7.93;3.60;;;16.70;99.90;;;;;;5117909;28;20039;-61
2021/12/02 12:58:14;;;;;;;5.10;2.60;;;16.70;99.90;;;;;;5117835;28;20035;-61
2021/12/02 13:00:51;;;;;;;6.65;3.08;;;16.60;99.60;;;;;;5117602;28;20043;-61
2021/12/02 13:06:20;;;;;;;3.95;2.05;;;16.60;99.50;;;;;;5099222;28;20081;-61
2021/12/02 13:08:50;;;;;;;7.57;2.90;;;16.60;99.40;;;;;;5117125;28;20067;-61
2021/12/02 13:11:21;;;;;;;3.95;2.40;;;16.40;99.00;;;;;;5117446;28;20039;-61
2021/12/02 13:13:51;;;;;;;5.60;2.13;;;16.30;99.50;;;;;;5099495;28;20067;-61
2021/12/02 13:16:20;;;;;;;7.60;3.05;;;16.30;99.90;;;;;;5117351;28;20076;-60
2021/12/02 13:18:59;;;;;;;3.53;2.13;;;16.30;99.90;;;;;;5099494;28;20370;-61
2021/12/02 13:21:33;;;;;;;9.10;3.42;;;16.20;99.90;;;;;;5117248;28;20131;-61
2021/12/02 13:24:17;;;;;;;6.47;3.90;;;16.20;99.90;;;;;;5117182;28;20050;-60
2021/12/02 13:26:52;;;;;;;7.75;3.40;;;16.10;99.90;;;;;;5099112;28;20036;-60
2021/12/02 13:29:22;;;;;;;6.07;2.72;;;16.10;99.90;;;;;;5117192;28;20039;-60
2021/12/02 13:31:55;;;;;;;6.38;2.92;;;16.00;99.90;;;;;;5117056;28;20104;-60
2021/12/02 13:34:26;;;;;;;8.00;3.00;;;16.00;99.90;;;;;;5116798;28;20038;-61
2021/12/02 13:37:09;;;;;;;11.05;2.60;;;16.00;99.90;;;;;;5116839;28;20067;-61
2021/12/02 13:39:43;;;;;;;4.68;2.30;;;16.00;99.90;;;;;;5107850;28;20039;-63
2021/12/02 13:42:13;;;;;;;5.80;2.80;;;15.90;99.90;;;;;;5093436;28;20028;-62